• Join FlightAware (Why Join?)
  • Login
  • US Flag 
06:12PM EDT


 

Airport Tracker/Info


-or-


 

Live Flight TrackerFlight Track Log ✈ N960DL ✈ 22-Jun-2013 ✈ KATL - KECP

Flight Track Log - Related Links

Times and Time Zones

All times are in EDT time to prevent confusion due to time zone crossing. See the N960DL flight status page for this flight to view local times or setup timezone preferences in your user account.

Time Position Orientation Groundspeed Altitude Reporting Facility
EDT Latitude Longitude Course Direction KTS MPH feet Rate Location/Type
10:39PM 33.6331 -84.3781 202° Southwest 452 520 2,500  Level Atlanta Center
10:40PM 33.6083 -84.3008 111° Southeast 333 383 4,800 2,580 Climbing Atlanta Center
10:41PM 33.5414 -84.2806 166° South 242 278 7,700 2,760 Climbing Atlanta Center
10:42PM 33.2826 -84.3469 202° Southwest  Level FlightAware Approximate
10:42PM 33.4622 -84.2828 181° South 272 313 10,400  Level Atlanta Center
10:43PM 33.1748 -84.3985 202° Southwest  Level FlightAware Approximate
10:43PM 33.3889 -84.3100 197° South 280 322 11,300  Level Atlanta Center
10:44PM 33.0670 -84.4499 202° Southwest  Level FlightAware Approximate
10:44PM 33.2928 -84.3569 202° Southwest 348 400 13,500  Level Atlanta Center
10:45PM 33.1906 -84.4036 201° Southwest 387 445 15,900 2,160 Climbing Atlanta Center
10:46PM 33.0858 -84.4528 201° Southwest 404 465 17,900 1,920 Climbing Atlanta Center
10:47PM 32.9772 -84.5044 202° Southwest 415 478 19,800 1,800 Climbing Atlanta Center
10:48PM 32.8539 -84.5706 204° Southwest 432 497 21,600 1,080 Climbing Atlanta Center
10:49PM 32.7492 -84.6167 200° South 442 509 22,000 180 Climbing Atlanta Center
10:50PM 32.6342 -84.6753 203° Southwest 450 518 22,000  Level Atlanta Center
10:51PM 32.5192 -84.7311 202° Southwest 450 518 22,000  Level Atlanta Center
10:52PM 32.4039 -84.7892 203° Southwest 455 524 22,000  Level Atlanta Center
10:54PM 32.1883 -84.8933 202° Southwest 448 516 22,000  Level Jacksonville Center
10:55PM 32.0725 -84.9494 202° Southwest 448 516 22,000  Level Jacksonville Center
10:56PM 31.9567 -85.0081 203° Southwest 448 516 22,000  Level Jacksonville Center
10:57PM 31.8306 -85.0736 204° Southwest 448 516 22,000  Level Jacksonville Center
10:58PM 31.7147 -85.1297 202° Southwest 453 521 22,000  Level Jacksonville Center
10:59PM 31.6072 -85.1783 201° Southwest 453 521 22,000 -360 Level Jacksonville Center
11:00PM 31.4956 -85.2364 204° Southwest 453 521 21,300 -1,440 Descending Jacksonville Center
11:01PM 31.3903 -85.2872 202° Southwest 438 504 19,200 -2,100 Descending Jacksonville Center
11:02PM 31.2892 -85.3358 202° Southwest 413 475 17,100 -2,220 Descending Jacksonville Center
11:03PM 31.1900 -85.3817 202° Southwest 394 453 14,800 -2,100 Descending Jacksonville Center
11:04PM 31.0953 -85.4278 203° Southwest 384 442 12,900 -1,500 Descending Jacksonville Center
11:05PM 31.0108 -85.4717 204° Southwest 361 415 11,800 -1,080 Descending Jacksonville Center
11:06PM 30.9328 -85.5081 202° Southwest 330 380 10,800 -1,320 Descending Jacksonville Center
11:07PM 30.8589 -85.5447 203° Southwest 305 351 9,200 -1,620 Descending Jacksonville Center
11:08PM 30.7853 -85.5767 200° South 293 337 7,600 -1,800 Descending Jacksonville Center
11:09PM 30.7114 -85.6156 204° Southwest 288 331 5,700 -1,800 Descending Jacksonville Center
11:10PM 30.6419 -85.6450 200° South 282 325 4,100 -1,320 Descending Jacksonville Center
11:11PM 30.5764 -85.6817 206° Southwest 275 316 3,100 -540 Descending Jacksonville Center
11:12PM 30.5664 -85.7489 260° West 228 262 3,100 -180 Level Jacksonville Center
11:13PM 30.5772 -85.8242 280° West 215 247 2,800 -540 Descending Jacksonville Center
11:14PM 30.5714 -85.8914 264° West 215 247 2,100 -360 Descending Jacksonville Center
11:15PM 30.5197 -85.8706 161° South 134 154 2,100  Level Jacksonville Center